createdAt,value
2022-09-15T00:04:15.839Z,18.79
2022-09-15T00:09:17.197Z,18.75
2022-09-15T00:14:19.245Z,18.71
2022-09-15T00:19:20.409Z,18.71
2022-09-15T00:24:22.361Z,18.74
2022-09-15T00:29:24.123Z,18.77
2022-09-15T00:34:26.037Z,18.81
2022-09-15T00:39:28.153Z,18.91
2022-09-15T00:44:30.007Z,19.04
2022-09-15T00:49:31.885Z,19.03
2022-09-15T00:54:33.563Z,18.99
2022-09-15T00:59:35.386Z,18.95
2022-09-15T01:04:37.477Z,18.91
2022-09-15T01:09:39.057Z,18.87
2022-09-15T01:14:40.864Z,18.85
2022-09-15T01:19:42.609Z,18.87
2022-09-15T01:24:43.844Z,18.99
2022-09-15T01:29:45.181Z,19.09
2022-09-15T01:34:46.696Z,19.07
2022-09-15T01:39:48.288Z,19.04
2022-09-15T01:44:50.007Z,19.06
2022-09-15T01:49:51.768Z,19.04
2022-09-15T01:54:52.974Z,19.04
2022-09-15T01:59:54.638Z,18.99
2022-09-15T02:04:56.385Z,18.98
2022-09-15T02:09:58.150Z,19.06
2022-09-15T02:15:00.201Z,19.08
2022-09-15T02:20:01.578Z,19.07
2022-09-15T02:25:02.785Z,19.04
2022-09-15T02:30:04.832Z,18.98
2022-09-15T02:35:06.658Z,18.94
2022-09-15T02:40:07.893Z,18.84
2022-09-15T02:45:09.747Z,18.78
2022-09-15T02:50:11.074Z,18.83
2022-09-15T02:55:12.745Z,19.03
2022-09-15T03:00:14.348Z,19.06
2022-09-15T03:05:16.252Z,19.01
2022-09-15T03:10:17.514Z,18.95
2022-09-15T03:15:18.799Z,18.95
2022-09-15T03:20:20.319Z,18.92
2022-09-15T03:25:22.436Z,18.86
2022-09-15T03:30:23.896Z,18.76
2022-09-15T03:35:25.858Z,18.79
2022-09-15T03:40:27.889Z,18.96
2022-09-15T03:45:29.818Z,18.96
2022-09-15T03:50:31.690Z,18.87
2022-09-15T03:55:33.476Z,18.79
2022-09-15T04:00:35.393Z,18.71
2022-09-15T04:05:37.527Z,18.65
2022-09-15T04:10:38.933Z,18.61
2022-09-15T04:15:40.514Z,18.54
2022-09-15T04:20:42.399Z,18.48
2022-09-15T04:25:44.464Z,18.62
2022-09-15T04:30:46.287Z,18.74
2022-09-15T04:35:48.269Z,18.73
2022-09-15T04:40:50.424Z,18.69
2022-09-15T04:45:51.785Z,18.67
2022-09-15T04:50:52.990Z,18.65
2022-09-15T04:55:54.703Z,18.62
2022-09-15T05:00:56.312Z,18.62
2022-09-15T05:05:57.681Z,18.61
2022-09-15T05:10:59.358Z,18.75
2022-09-15T05:16:01.282Z,18.91
2022-09-15T05:21:02.566Z,18.93
2022-09-15T05:26:04.249Z,18.92
2022-09-15T05:31:05.741Z,18.95
2022-09-15T05:36:07.618Z,18.95
2022-09-15T05:41:08.936Z,18.92
2022-09-15T05:46:10.628Z,18.94
2022-09-15T05:51:12.316Z,18.89
2022-09-15T05:56:14.001Z,18.96
2022-09-15T06:01:16.027Z,19.04
2022-09-15T06:06:17.943Z,18.95
2022-09-15T06:11:19.754Z,18.93
2022-09-15T06:16:21.039Z,18.93
2022-09-15T06:21:22.411Z,18.9
2022-09-15T06:26:23.670Z,18.89
2022-09-15T06:31:25.464Z,18.84
2022-09-15T06:36:26.730Z,18.83
2022-09-15T06:41:31.100Z,19.1
2022-09-15T06:46:29.818Z,19.29
2022-09-15T06:51:31.095Z,19.29
2022-09-15T06:56:35.809Z,19.31
2022-09-15T07:01:34.405Z,19.36
2022-09-15T07:06:35.548Z,19.43
2022-09-15T07:11:36.730Z,19.48
2022-09-15T07:16:38.618Z,19.43
2022-09-15T07:21:40.526Z,19.51
2022-09-15T07:26:42.578Z,19.7
2022-09-15T07:31:44.286Z,19.78
2022-09-15T07:36:45.519Z,19.78
2022-09-15T07:41:47.642Z,19.76
2022-09-15T07:46:49.438Z,19.85
2022-09-15T07:51:51.369Z,19.92
2022-09-15T07:56:53.166Z,20.04
2022-09-15T08:01:55.092Z,20.09
2022-09-15T08:06:56.289Z,20.43
2022-09-15T08:11:58.175Z,20.78
2022-09-15T08:17:00.032Z,20.91
2022-09-15T08:22:01.462Z,21.04
2022-09-15T08:27:03.369Z,21.29
2022-09-15T08:32:04.566Z,21.45
2022-09-15T08:37:06.114Z,21.48
2022-09-15T08:42:08.279Z,21.66
2022-09-15T08:47:10.256Z,21.78
2022-09-15T08:52:12.204Z,21.81
2022-09-15T08:57:14.032Z,21.83
2022-09-15T09:02:15.290Z,21.95
2022-09-15T09:07:17.029Z,22.06
2022-09-15T09:12:18.997Z,22.2
2022-09-15T09:17:20.497Z,22.11
2022-09-15T09:22:22.291Z,22.17
2022-09-15T09:27:24.271Z,22.2
2022-09-15T09:32:25.645Z,22.3
2022-09-15T09:37:26.963Z,23.37
2022-09-15T09:42:28.271Z,24.88
2022-09-15T09:47:30.510Z,26.61
2022-09-15T09:52:32.478Z,27.58
2022-09-15T09:57:36.592Z,28.6
2022-09-15T10:02:36.136Z,29.55
2022-09-15T10:07:37.734Z,28.51
2022-09-15T10:12:39.255Z,28.58
2022-09-15T10:17:41.381Z,28.16
2022-09-15T10:22:42.747Z,27.56
2022-09-15T10:27:43.928Z,26.81
2022-09-15T10:32:45.701Z,26.14
2022-09-15T10:37:47.496Z,26.07
2022-09-15T10:42:49.581Z,26.34
2022-09-15T10:47:51.663Z,25.94
2022-09-15T10:52:53.407Z,25.79
2022-09-15T10:57:54.998Z,25.46
2022-09-15T11:02:56.446Z,25.17
2022-09-15T11:07:58.366Z,24.99
2022-09-15T11:13:00.220Z,24.77
2022-09-15T11:18:01.917Z,24.81
2022-09-15T11:23:03.601Z,24.74
2022-09-15T11:28:05.657Z,24.74
2022-09-15T11:33:07.149Z,24.81
2022-09-15T11:38:12.287Z,24.79
2022-09-15T11:43:10.460Z,24.74
2022-09-15T11:48:12.279Z,24.65
2022-09-15T11:53:13.548Z,24.44
2022-09-15T11:58:18.485Z,24.42
2022-09-15T12:03:17.205Z,24.43
2022-09-15T12:08:18.741Z,24.3
2022-09-15T12:13:20.172Z,24.21
2022-09-15T12:18:37.655Z,24.05
2022-09-15T12:23:23.982Z,23.93
2022-09-15T12:28:26.023Z,23.86
2022-09-15T12:33:27.685Z,23.71
2022-09-15T12:38:29.622Z,23.59
2022-09-15T12:43:30.990Z,23.44
2022-09-15T12:48:32.460Z,23.35
2022-09-15T12:58:35.392Z,22.81
2022-09-15T13:03:37.229Z,22.79
2022-09-15T13:08:38.912Z,22.89
2022-09-15T13:13:40.278Z,23.1
2022-09-15T13:18:41.749Z,23.18
2022-09-15T13:23:43.210Z,23.18
2022-09-15T13:28:45.061Z,23.16
2022-09-15T13:38:48.369Z,23.15
2022-09-15T13:43:49.712Z,23.11
2022-09-15T13:48:51.788Z,23.18
2022-09-15T13:53:53.310Z,23.27
2022-09-15T13:58:57.855Z,23.11
2022-09-15T14:03:56.560Z,22.97
2022-09-15T14:08:58.090Z,22.77
2022-09-15T14:14:00.024Z,22.69
2022-09-15T14:19:01.802Z,22.59
2022-09-15T14:24:03.421Z,22.48
2022-09-15T14:29:05.253Z,22.52
2022-09-15T14:34:06.620Z,22.24
2022-09-15T14:39:07.915Z,21.77
2022-09-15T14:44:10.148Z,21.58
2022-09-15T14:49:11.917Z,21.15
2022-09-15T14:54:13.901Z,20.59
2022-09-15T14:59:15.290Z,20.16
2022-09-15T15:04:16.449Z,19.86
2022-09-15T15:09:17.838Z,19.68
2022-09-15T15:14:19.619Z,19.62
2022-09-15T15:19:21.843Z,19.56
2022-09-15T15:24:23.623Z,19.43
2022-09-15T15:29:25.478Z,19.37
2022-09-15T15:34:27.414Z,19.26
2022-09-15T15:39:29.361Z,19.23
2022-09-15T15:44:30.616Z,19.17
2022-09-15T15:49:32.669Z,19.08
2022-09-15T15:54:33.961Z,18.92
2022-09-15T15:59:35.645Z,18.87
2022-09-15T16:04:43.535Z,18.87
2022-09-15T16:09:45.478Z,18.7
2022-09-15T16:14:47.091Z,18.45
2022-09-15T16:19:48.996Z,18.32
2022-09-15T16:24:50.066Z,18.06
2022-09-15T16:29:52.087Z,17.91
2022-09-15T16:34:53.383Z,17.7
2022-09-15T16:39:55.365Z,17.5
2022-09-15T16:44:56.772Z,17.29
2022-09-15T16:49:58.572Z,16.98
2022-09-15T16:54:59.719Z,16.82
2022-09-15T17:00:01.192Z,16.77
2022-09-15T17:05:02.588Z,16.82
2022-09-15T17:10:04.552Z,16.85
2022-09-15T17:15:06.197Z,16.84
2022-09-15T17:20:08.383Z,16.75
2022-09-15T17:25:09.874Z,16.65
2022-09-15T17:30:12.005Z,16.59
2022-09-15T17:35:13.635Z,16.54
2022-09-15T17:40:15.265Z,16.54
2022-09-15T17:45:16.684Z,16.5
2022-09-15T17:50:18.820Z,16.45
2022-09-15T17:55:20.599Z,16.41
2022-09-15T18:00:22.365Z,16.34
2022-09-15T18:05:24.282Z,16.33
2022-09-15T18:10:25.537Z,16.33
2022-09-15T18:15:32.262Z,16.29
2022-09-15T18:20:34.108Z,16.31
2022-09-15T18:25:30.519Z,16.32
2022-09-15T18:30:32.470Z,16.33
2022-09-15T18:35:34.014Z,16.35
2022-09-15T18:40:35.866Z,16.35
2022-09-15T18:45:37.593Z,16.36
2022-09-15T18:50:39.612Z,16.34
2022-09-15T18:55:41.272Z,16.32
2022-09-15T19:00:43.382Z,16.28
2022-09-15T19:05:45.571Z,16.25
2022-09-15T19:10:46.848Z,16.17
2022-09-15T19:15:51.518Z,16.12
2022-09-15T19:20:49.823Z,16.12
2022-09-15T19:25:51.169Z,16.12
2022-09-15T19:30:52.751Z,16.11
2022-09-15T19:36:05.209Z,16.1
2022-09-15T19:41:01.645Z,16.1
2022-09-15T19:45:58.663Z,16.09
2022-09-15T19:51:00.706Z,16.04
2022-09-15T19:56:02.578Z,15.96
2022-09-15T20:01:04.396Z,15.89
2022-09-15T20:06:06.299Z,15.77
2022-09-15T20:11:08.314Z,15.72
2022-09-15T20:16:10.382Z,15.67
2022-09-15T20:21:17.966Z,15.59
2022-09-15T20:26:13.519Z,15.54
2022-09-15T20:31:15.354Z,15.52
2022-09-15T20:36:16.549Z,15.49
2022-09-15T20:41:18.596Z,15.49
2022-09-15T20:46:19.894Z,15.48
2022-09-15T20:51:21.108Z,15.43
2022-09-15T20:56:22.994Z,15.43
2022-09-15T21:01:24.671Z,15.45
2022-09-15T21:06:26.792Z,15.45
2022-09-15T21:11:28.226Z,15.45
2022-09-15T21:16:29.682Z,15.47
2022-09-15T21:21:31.714Z,15.46
2022-09-15T21:26:33.225Z,15.46
2022-09-15T21:31:34.515Z,15.47
2022-09-15T21:36:36.700Z,15.46
2022-09-15T21:41:38.562Z,15.47
2022-09-15T21:46:40.528Z,15.42
2022-09-15T21:51:41.890Z,15.41
2022-09-15T21:56:43.343Z,15.37
2022-09-15T22:11:58.005Z,15.26
2022-09-15T22:16:49.855Z,15.21
2022-09-15T22:21:51.830Z,15.21
2022-09-15T22:26:53.202Z,15.19
2022-09-15T22:31:54.975Z,15.16
2022-09-15T22:36:56.808Z,15.15
2022-09-15T22:41:58.672Z,15.13
2022-09-15T22:47:00.007Z,15
2022-09-15T22:52:01.271Z,14.98
2022-09-15T22:57:02.978Z,14.95
2022-09-15T23:02:04.431Z,14.9
2022-09-15T23:07:06.392Z,14.86
2022-09-15T23:12:07.768Z,14.84
2022-09-15T23:17:09.933Z,14.81
2022-09-15T23:22:12.028Z,14.81
2022-09-15T23:27:13.763Z,14.8
2022-09-15T23:32:15.722Z,14.75
2022-09-15T23:37:17.113Z,14.74
2022-09-15T23:42:19.156Z,14.68
2022-09-15T23:47:20.407Z,14.64
2022-09-15T23:52:22.232Z,14.6
2022-09-15T23:57:24.220Z,14.54
